sensor_id;sensor_type;location;lat;lon;timestamp;P1;durP1;ratioP1;P2;durP2;ratioP2
16892;SDS011;8563;52.242;9.098;2023-07-29T00:00:23;1.58;;;1.42;;
16892;SDS011;8563;52.242;9.098;2023-07-29T00:02:56;2.42;;;1.25;;
16892;SDS011;8563;52.242;9.098;2023-07-29T00:05:29;1.20;;;1.10;;
16892;SDS011;8563;52.242;9.098;2023-07-29T00:08:01;1.65;;;1.30;;
16892;SDS011;8563;52.242;9.098;2023-07-29T00:10:35;2.65;;;1.52;;
16892;SDS011;8563;52.242;9.098;2023-07-29T00:13:09;2.85;;;1.50;;
16892;SDS011;8563;52.242;9.098;2023-07-29T00:15:42;1.83;;;1.20;;
16892;SDS011;8563;52.242;9.098;2023-07-29T00:18:14;1.63;;;1.40;;
16892;SDS011;8563;52.242;9.098;2023-07-29T00:20:46;1.23;;;1.13;;
16892;SDS011;8563;52.242;9.098;2023-07-29T00:23:20;1.17;;;1.05;;
16892;SDS011;8563;52.242;9.098;2023-07-29T00:25:52;1.58;;;1.45;;
16892;SDS011;8563;52.242;9.098;2023-07-29T00:28:26;1.60;;;1.33;;
16892;SDS011;8563;52.242;9.098;2023-07-29T00:30:59;1.90;;;1.50;;
16892;SDS011;8563;52.242;9.098;2023-07-29T00:33:31;2.22;;;1.70;;
16892;SDS011;8563;52.242;9.098;2023-07-29T00:36:04;1.73;;;1.27;;
16892;SDS011;8563;52.242;9.098;2023-07-29T00:38:36;1.50;;;1.08;;
16892;SDS011;8563;52.242;9.098;2023-07-29T00:41:09;2.88;;;1.30;;
16892;SDS011;8563;52.242;9.098;2023-07-29T00:43:47;1.92;;;1.48;;
16892;SDS011;8563;52.242;9.098;2023-07-29T00:46:20;2.33;;;1.40;;
16892;SDS011;8563;52.242;9.098;2023-07-29T00:48:52;2.00;;;1.45;;
16892;SDS011;8563;52.242;9.098;2023-07-29T00:51:24;1.42;;;1.33;;
16892;SDS011;8563;52.242;9.098;2023-07-29T00:53:57;1.75;;;1.48;;
16892;SDS011;8563;52.242;9.098;2023-07-29T00:56:29;1.33;;;1.08;;
16892;SDS011;8563;52.242;9.098;2023-07-29T00:59:04;1.83;;;1.45;;
16892;SDS011;8563;52.242;9.098;2023-07-29T01:01:36;1.73;;;1.17;;
16892;SDS011;8563;52.242;9.098;2023-07-29T01:04:08;1.60;;;1.50;;
16892;SDS011;8563;52.242;9.098;2023-07-29T01:06:41;1.40;;;1.30;;
16892;SDS011;8563;52.242;9.098;2023-07-29T01:09:18;1.98;;;1.35;;
16892;SDS011;8563;52.242;9.098;2023-07-29T01:11:55;3.35;;;1.60;;
16892;SDS011;8563;52.242;9.098;2023-07-29T01:14:33;1.60;;;1.33;;
16892;SDS011;8563;52.242;9.098;2023-07-29T01:17:07;2.25;;;1.30;;
16892;SDS011;8563;52.242;9.098;2023-07-29T01:19:58;1.30;;;1.20;;
16892;SDS011;8563;52.242;9.098;2023-07-29T01:22:33;1.70;;;1.60;;
16892;SDS011;8563;52.242;9.098;2023-07-29T01:25:08;2.30;;;1.27;;
16892;SDS011;8563;52.242;9.098;2023-07-29T01:27:41;1.83;;;1.58;;
16892;SDS011;8563;52.242;9.098;2023-07-29T01:30:14;1.50;;;1.40;;
16892;SDS011;8563;52.242;9.098;2023-07-29T01:32:49;1.77;;;1.50;;
16892;SDS011;8563;52.242;9.098;2023-07-29T01:35:24;3.88;;;1.40;;
16892;SDS011;8563;52.242;9.098;2023-07-29T01:40:45;1.77;;;1.50;;
16892;SDS011;8563;52.242;9.098;2023-07-29T01:43:19;2.20;;;1.27;;
16892;SDS011;8563;52.242;9.098;2023-07-29T01:45:53;2.00;;;1.30;;
16892;SDS011;8563;52.242;9.098;2023-07-29T01:48:26;2.00;;;1.30;;
16892;SDS011;8563;52.242;9.098;2023-07-29T01:51:00;4.72;;;1.45;;
16892;SDS011;8563;52.242;9.098;2023-07-29T01:53:33;1.25;;;1.15;;
16892;SDS011;8563;52.242;9.098;2023-07-29T01:56:07;3.55;;;1.40;;
16892;SDS011;8563;52.242;9.098;2023-07-29T01:58:42;2.08;;;1.40;;
16892;SDS011;8563;52.242;9.098;2023-07-29T02:01:18;2.90;;;1.38;;
16892;SDS011;8563;52.242;9.098;2023-07-29T02:03:51;1.10;;;1.00;;
16892;SDS011;8563;52.242;9.098;2023-07-29T02:06:25;1.58;;;1.38;;
16892;SDS011;8563;52.242;9.098;2023-07-29T02:08:57;2.65;;;1.40;;
16892;SDS011;8563;52.242;9.098;2023-07-29T02:11:31;1.40;;;1.30;;
16892;SDS011;8563;52.242;9.098;2023-07-29T02:14:04;2.35;;;1.30;;
16892;SDS011;8563;52.242;9.098;2023-07-29T02:16:36;1.75;;;1.65;;
16892;SDS011;8563;52.242;9.098;2023-07-29T02:19:09;1.75;;;1.65;;
16892;SDS011;8563;52.242;9.098;2023-07-29T02:21:41;1.40;;;1.30;;
16892;SDS011;8563;52.242;9.098;2023-07-29T02:24:14;1.55;;;1.45;;
16892;SDS011;8563;52.242;9.098;2023-07-29T02:26:48;1.33;;;1.23;;
16892;SDS011;8563;52.242;9.098;2023-07-29T02:29:20;1.40;;;1.25;;
16892;SDS011;8563;52.242;9.098;2023-07-29T02:31:53;1.55;;;1.45;;
16892;SDS011;8563;52.242;9.098;2023-07-29T02:34:25;1.80;;;1.48;;
16892;SDS011;8563;52.242;9.098;2023-07-29T02:36:58;1.52;;;1.40;;
16892;SDS011;8563;52.242;9.098;2023-07-29T02:39:30;3.00;;;1.38;;
16892;SDS011;8563;52.242;9.098;2023-07-29T02:42:04;1.75;;;1.33;;
16892;SDS011;8563;52.242;9.098;2023-07-29T02:44:36;1.55;;;1.45;;
16892;SDS011;8563;52.242;9.098;2023-07-29T02:47:09;1.75;;;1.23;;
16892;SDS011;8563;52.242;9.098;2023-07-29T02:49:41;1.38;;;1.27;;
16892;SDS011;8563;52.242;9.098;2023-07-29T02:52:14;3.17;;;1.60;;
16892;SDS011;8563;52.242;9.098;2023-07-29T02:54:46;1.40;;;1.30;;
16892;SDS011;8563;52.242;9.098;2023-07-29T02:57:20;1.40;;;1.30;;
16892;SDS011;8563;52.242;9.098;2023-07-29T02:59:53;1.73;;;1.40;;
16892;SDS011;8563;52.242;9.098;2023-07-29T03:02:25;2.45;;;1.70;;
16892;SDS011;8563;52.242;9.098;2023-07-29T03:04:57;1.30;;;1.20;;
16892;SDS011;8563;52.242;9.098;2023-07-29T03:07:30;1.60;;;1.50;;
16892;SDS011;8563;52.242;9.098;2023-07-29T03:10:02;4.18;;;1.70;;
16892;SDS011;8563;52.242;9.098;2023-07-29T03:12:37;1.30;;;1.20;;
16892;SDS011;8563;52.242;9.098;2023-07-29T03:15:09;1.40;;;1.30;;
16892;SDS011;8563;52.242;9.098;2023-07-29T03:17:42;1.50;;;1.40;;
16892;SDS011;8563;52.242;9.098;2023-07-29T03:20:14;1.52;;;1.33;;
16892;SDS011;8563;52.242;9.098;2023-07-29T03:22:48;2.47;;;1.30;;
16892;SDS011;8563;52.242;9.098;2023-07-29T03:25:20;1.35;;;1.25;;
16892;SDS011;8563;52.242;9.098;2023-07-29T03:27:54;4.38;;;1.55;;
16892;SDS011;8563;52.242;9.098;2023-07-29T03:30:27;2.15;;;1.38;;
16892;SDS011;8563;52.242;9.098;2023-07-29T03:32:59;1.50;;;1.40;;
16892;SDS011;8563;52.242;9.098;2023-07-29T03:35:32;2.53;;;1.30;;
16892;SDS011;8563;52.242;9.098;2023-07-29T03:38:04;2.00;;;1.70;;
16892;SDS011;8563;52.242;9.098;2023-07-29T03:40:37;2.53;;;1.45;;
16892;SDS011;8563;52.242;9.098;2023-07-29T03:43:10;2.05;;;1.45;;
16892;SDS011;8563;52.242;9.098;2023-07-29T03:45:43;1.33;;;1.23;;
16892;SDS011;8563;52.242;9.098;2023-07-29T03:48:16;1.23;;;1.13;;
16892;SDS011;8563;52.242;9.098;2023-07-29T03:50:48;2.55;;;1.60;;
16892;SDS011;8563;52.242;9.098;2023-07-29T03:53:20;1.50;;;1.40;;
16892;SDS011;8563;52.242;9.098;2023-07-29T03:55:53;1.48;;;1.38;;
16892;SDS011;8563;52.242;9.098;2023-07-29T03:58:28;1.30;;;1.20;;
16892;SDS011;8563;52.242;9.098;2023-07-29T04:01:00;1.42;;;1.10;;
16892;SDS011;8563;52.242;9.098;2023-07-29T04:03:33;1.70;;;1.48;;
16892;SDS011;8563;52.242;9.098;2023-07-29T04:06:05;2.13;;;1.50;;
16892;SDS011;8563;52.242;9.098;2023-07-29T04:08:38;1.77;;;1.20;;
16892;SDS011;8563;52.242;9.098;2023-07-29T04:11:11;1.50;;;1.40;;
16892;SDS011;8563;52.242;9.098;2023-07-29T04:13:45;1.40;;;1.30;;
16892;SDS011;8563;52.242;9.098;2023-07-29T04:16:18;2.78;;;1.50;;
16892;SDS011;8563;52.242;9.098;2023-07-29T04:18:50;1.45;;;1.35;;
16892;SDS011;8563;52.242;9.098;2023-07-29T04:21:23;1.50;;;1.40;;
16892;SDS011;8563;52.242;9.098;2023-07-29T04:23:55;1.90;;;1.67;;
16892;SDS011;8563;52.242;9.098;2023-07-29T04:26:28;2.65;;;1.50;;
16892;SDS011;8563;52.242;9.098;2023-07-29T04:29:01;2.95;;;1.77;;
16892;SDS011;8563;52.242;9.098;2023-07-29T04:31:34;1.70;;;1.50;;
16892;SDS011;8563;52.242;9.098;2023-07-29T04:34:06;1.48;;;1.38;;
16892;SDS011;8563;52.242;9.098;2023-07-29T04:36:39;1.75;;;1.50;;
16892;SDS011;8563;52.242;9.098;2023-07-29T04:39:11;2.45;;;1.67;;
16892;SDS011;8563;52.242;9.098;2023-07-29T04:41:44;1.67;;;1.50;;
16892;SDS011;8563;52.242;9.098;2023-07-29T04:44:17;1.58;;;1.48;;
16892;SDS011;8563;52.242;9.098;2023-07-29T04:46:50;1.88;;;1.42;;
16892;SDS011;8563;52.242;9.098;2023-07-29T04:49:22;2.58;;;1.13;;
16892;SDS011;8563;52.242;9.098;2023-07-29T04:51:55;1.58;;;1.48;;
16892;SDS011;8563;52.242;9.098;2023-07-29T04:54:27;1.60;;;1.50;;
16892;SDS011;8563;52.242;9.098;2023-07-29T04:57:00;2.30;;;1.50;;
16892;SDS011;8563;52.242;9.098;2023-07-29T04:59:33;2.78;;;1.45;;
16892;SDS011;8563;52.242;9.098;2023-07-29T05:02:07;1.52;;;1.42;;
16892;SDS011;8563;52.242;9.098;2023-07-29T05:04:40;1.63;;;1.52;;
16892;SDS011;8563;52.242;9.098;2023-07-29T05:07:13;1.85;;;1.60;;
16892;SDS011;8563;52.242;9.098;2023-07-29T05:09:46;2.05;;;1.50;;
16892;SDS011;8563;52.242;9.098;2023-07-29T05:12:19;3.65;;;1.30;;
16892;SDS011;8563;52.242;9.098;2023-07-29T05:14:53;2.15;;;1.42;;
16892;SDS011;8563;52.242;9.098;2023-07-29T05:17:25;1.77;;;1.40;;
16892;SDS011;8563;52.242;9.098;2023-07-29T05:19:58;3.78;;;1.48;;
16892;SDS011;8563;52.242;9.098;2023-07-29T05:22:30;1.65;;;1.55;;
16892;SDS011;8563;52.242;9.098;2023-07-29T05:25:03;1.55;;;1.45;;
16892;SDS011;8563;52.242;9.098;2023-07-29T05:27:35;2.85;;;1.50;;
16892;SDS011;8563;52.242;9.098;2023-07-29T05:30:09;1.42;;;1.33;;
16892;SDS011;8563;52.242;9.098;2023-07-29T05:32:42;1.77;;;1.52;;
16892;SDS011;8563;52.242;9.098;2023-07-29T05:35:15;1.65;;;1.50;;
16892;SDS011;8563;52.242;9.098;2023-07-29T05:37:47;1.80;;;1.70;;
16892;SDS011;8563;52.242;9.098;2023-07-29T05:40:19;1.67;;;1.58;;
16892;SDS011;8563;52.242;9.098;2023-07-29T05:42:52;1.58;;;1.48;;
16892;SDS011;8563;52.242;9.098;2023-07-29T05:45:26;1.83;;;1.50;;
16892;SDS011;8563;52.242;9.098;2023-07-29T05:48:01;1.52;;;1.20;;
16892;SDS011;8563;52.242;9.098;2023-07-29T05:50:33;4.72;;;1.63;;
16892;SDS011;8563;52.242;9.098;2023-07-29T05:53:06;2.58;;;1.38;;
16892;SDS011;8563;52.242;9.098;2023-07-29T05:55:38;3.08;;;1.55;;
16892;SDS011;8563;52.242;9.098;2023-07-29T05:58:11;1.73;;;1.63;;
16892;SDS011;8563;52.242;9.098;2023-07-29T06:00:44;1.85;;;1.70;;
16892;SDS011;8563;52.242;9.098;2023-07-29T06:03:17;2.33;;;1.50;;
16892;SDS011;8563;52.242;9.098;2023-07-29T06:05:49;4.90;;;1.60;;
16892;SDS011;8563;52.242;9.098;2023-07-29T06:08:22;1.40;;;1.30;;
16892;SDS011;8563;52.242;9.098;2023-07-29T06:10:54;1.38;;;1.27;;
16892;SDS011;8563;52.242;9.098;2023-07-29T06:13:27;1.27;;;1.17;;
16892;SDS011;8563;52.242;9.098;2023-07-29T06:16:01;2.17;;;1.98;;
16892;SDS011;8563;52.242;9.098;2023-07-29T06:18:34;1.45;;;1.30;;
16892;SDS011;8563;52.242;9.098;2023-07-29T06:21:07;1.60;;;1.50;;
16892;SDS011;8563;52.242;9.098;2023-07-29T06:23:42;2.92;;;1.20;;
16892;SDS011;8563;52.242;9.098;2023-07-29T06:26:15;2.55;;;1.45;;
16892;SDS011;8563;52.242;9.098;2023-07-29T06:28:47;1.95;;;1.30;;
16892;SDS011;8563;52.242;9.098;2023-07-29T06:31:21;2.42;;;1.67;;
16892;SDS011;8563;52.242;9.098;2023-07-29T06:33:53;2.78;;;1.60;;
16892;SDS011;8563;52.242;9.098;2023-07-29T06:36:26;1.58;;;1.20;;
16892;SDS011;8563;52.242;9.098;2023-07-29T06:38:58;1.70;;;1.45;;
16892;SDS011;8563;52.242;9.098;2023-07-29T06:41:30;1.90;;;1.30;;
16892;SDS011;8563;52.242;9.098;2023-07-29T06:44:07;2.35;;;1.30;;
16892;SDS011;8563;52.242;9.098;2023-07-29T06:46:41;2.67;;;1.38;;
16892;SDS011;8563;52.242;9.098;2023-07-29T06:49:13;1.50;;;1.40;;
16892;SDS011;8563;52.242;9.098;2023-07-29T06:51:45;2.55;;;1.45;;
16892;SDS011;8563;52.242;9.098;2023-07-29T06:54:18;2.65;;;1.50;;
16892;SDS011;8563;52.242;9.098;2023-07-29T06:56:50;2.05;;;1.50;;
16892;SDS011;8563;52.242;9.098;2023-07-29T06:59:22;1.73;;;1.25;;
16892;SDS011;8563;52.242;9.098;2023-07-29T07:01:57;1.67;;;1.50;;
16892;SDS011;8563;52.242;9.098;2023-07-29T07:04:30;1.40;;;1.30;;
16892;SDS011;8563;52.242;9.098;2023-07-29T07:07:02;1.55;;;1.23;;
16892;SDS011;8563;52.242;9.098;2023-07-29T07:09:35;1.48;;;1.30;;
16892;SDS011;8563;52.242;9.098;2023-07-29T07:12:07;1.25;;;1.15;;
16892;SDS011;8563;52.242;9.098;2023-07-29T07:14:40;1.40;;;1.30;;
16892;SDS011;8563;52.242;9.098;2023-07-29T07:17:14;1.73;;;1.33;;
16892;SDS011;8563;52.242;9.098;2023-07-29T07:19:46;2.63;;;1.40;;
16892;SDS011;8563;52.242;9.098;2023-07-29T07:22:18;2.60;;;1.65;;
16892;SDS011;8563;52.242;9.098;2023-07-29T07:24:51;2.42;;;1.48;;
16892;SDS011;8563;52.242;9.098;2023-07-29T07:27:23;2.72;;;1.20;;
16892;SDS011;8563;52.242;9.098;2023-07-29T07:29:56;2.25;;;1.50;;
16892;SDS011;8563;52.242;9.098;2023-07-29T07:32:29;2.33;;;1.40;;
16892;SDS011;8563;52.242;9.098;2023-07-29T07:35:02;3.45;;;1.40;;
16892;SDS011;8563;52.242;9.098;2023-07-29T07:37:35;3.58;;;1.85;;
16892;SDS011;8563;52.242;9.098;2023-07-29T07:40:07;3.65;;;2.05;;
16892;SDS011;8563;52.242;9.098;2023-07-29T07:42:40;3.95;;;2.13;;
16892;SDS011;8563;52.242;9.098;2023-07-29T07:45:12;2.97;;;1.92;;
16892;SDS011;8563;52.242;9.098;2023-07-29T07:47:46;2.85;;;1.85;;
16892;SDS011;8563;52.242;9.098;2023-07-29T07:50:19;1.80;;;1.70;;
16892;SDS011;8563;52.242;9.098;2023-07-29T07:52:51;3.33;;;2.40;;
16892;SDS011;8563;52.242;9.098;2023-07-29T07:55:24;1.70;;;1.60;;
16892;SDS011;8563;52.242;9.098;2023-07-29T07:57:56;3.85;;;1.90;;
16892;SDS011;8563;52.242;9.098;2023-07-29T08:00:29;2.40;;;2.28;;
16892;SDS011;8563;52.242;9.098;2023-07-29T08:03:03;4.55;;;3.05;;
16892;SDS011;8563;52.242;9.098;2023-07-29T08:05:35;6.70;;;4.38;;
16892;SDS011;8563;52.242;9.098;2023-07-29T08:08:08;14.43;;;5.43;;
16892;SDS011;8563;52.242;9.098;2023-07-29T08:10:40;13.55;;;5.78;;
16892;SDS011;8563;52.242;9.098;2023-07-29T08:13:12;12.13;;;5.03;;
16892;SDS011;8563;52.242;9.098;2023-07-29T08:15:45;9.30;;;5.20;;
16892;SDS011;8563;52.242;9.098;2023-07-29T08:18:20;12.05;;;6.65;;
16892;SDS011;8563;52.242;9.098;2023-07-29T08:20:52;7.45;;;5.10;;
16892;SDS011;8563;52.242;9.098;2023-07-29T08:23:28;48.13;;;9.70;;
16892;SDS011;8563;52.242;9.098;2023-07-29T08:26:01;13.18;;;6.63;;
16892;SDS011;8563;52.242;9.098;2023-07-29T08:28:35;6.70;;;5.72;;
16892;SDS011;8563;52.242;9.098;2023-07-29T08:31:08;8.82;;;7.20;;
16892;SDS011;8563;52.242;9.098;2023-07-29T08:33:42;9.23;;;7.20;;
16892;SDS011;8563;52.242;9.098;2023-07-29T08:36:14;9.10;;;7.80;;
16892;SDS011;8563;52.242;9.098;2023-07-29T08:38:46;12.93;;;8.63;;
16892;SDS011;8563;52.242;9.098;2023-07-29T08:41:19;8.88;;;7.97;;
16892;SDS011;8563;52.242;9.098;2023-07-29T08:43:58;9.85;;;7.95;;
16892;SDS011;8563;52.242;9.098;2023-07-29T08:46:31;9.30;;;8.50;;
16892;SDS011;8563;52.242;9.098;2023-07-29T08:49:06;7.82;;;7.13;;
16892;SDS011;8563;52.242;9.098;2023-07-29T08:51:39;7.72;;;7.05;;
16892;SDS011;8563;52.242;9.098;2023-07-29T08:54:11;6.40;;;5.80;;
16892;SDS011;8563;52.242;9.098;2023-07-29T08:56:44;7.88;;;6.18;;
16892;SDS011;8563;52.242;9.098;2023-07-29T08:59:17;7.40;;;6.80;;
16892;SDS011;8563;52.242;9.098;2023-07-29T09:01:49;6.50;;;6.00;;
16892;SDS011;8563;52.242;9.098;2023-07-29T09:04:27;6.45;;;5.82;;
16892;SDS011;8563;52.242;9.098;2023-07-29T09:06:59;5.70;;;5.30;;
16892;SDS011;8563;52.242;9.098;2023-07-29T09:09:32;5.40;;;5.00;;
16892;SDS011;8563;52.242;9.098;2023-07-29T09:12:05;4.95;;;4.55;;
16892;SDS011;8563;52.242;9.098;2023-07-29T09:14:38;5.40;;;4.13;;
16892;SDS011;8563;52.242;9.098;2023-07-29T09:17:10;4.47;;;4.07;;
16892;SDS011;8563;52.242;9.098;2023-07-29T09:19:48;4.38;;;3.95;;
16892;SDS011;8563;52.242;9.098;2023-07-29T09:22:20;3.67;;;3.38;;
16892;SDS011;8563;52.242;9.098;2023-07-29T09:24:53;3.35;;;3.15;;
16892;SDS011;8563;52.242;9.098;2023-07-29T09:27:26;3.30;;;3.10;;
16892;SDS011;8563;52.242;9.098;2023-07-29T09:30:00;2.80;;;2.60;;
16892;SDS011;8563;52.242;9.098;2023-07-29T09:32:33;5.53;;;2.30;;
16892;SDS011;8563;52.242;9.098;2023-07-29T09:35:11;1.98;;;1.88;;
16892;SDS011;8563;52.242;9.098;2023-07-29T09:37:43;3.45;;;1.88;;
16892;SDS011;8563;52.242;9.098;2023-07-29T09:40:15;3.58;;;1.80;;
16892;SDS011;8563;52.242;9.098;2023-07-29T09:42:48;1.95;;;1.85;;
16892;SDS011;8563;52.242;9.098;2023-07-29T09:45:21;2.33;;;1.90;;
16892;SDS011;8563;52.242;9.098;2023-07-29T09:47:54;1.70;;;1.60;;
16892;SDS011;8563;52.242;9.098;2023-07-29T09:50:30;3.95;;;1.83;;
16892;SDS011;8563;52.242;9.098;2023-07-29T09:53:02;3.63;;;1.73;;
16892;SDS011;8563;52.242;9.098;2023-07-29T09:55:35;3.97;;;1.92;;
16892;SDS011;8563;52.242;9.098;2023-07-29T09:58:07;2.45;;;1.60;;
16892;SDS011;8563;52.242;9.098;2023-07-29T10:00:40;1.90;;;1.50;;
16892;SDS011;8563;52.242;9.098;2023-07-29T10:03:13;1.70;;;1.60;;
16892;SDS011;8563;52.242;9.098;2023-07-29T10:05:48;3.50;;;1.58;;
16892;SDS011;8563;52.242;9.098;2023-07-29T10:08:21;2.05;;;1.85;;
16892;SDS011;8563;52.242;9.098;2023-07-29T10:10:55;1.40;;;1.30;;
16892;SDS011;8563;52.242;9.098;2023-07-29T10:13:28;2.10;;;1.23;;
16892;SDS011;8563;52.242;9.098;2023-07-29T10:16:01;1.35;;;1.00;;
16892;SDS011;8563;52.242;9.098;2023-07-29T10:18:35;1.17;;;1.05;;
16892;SDS011;8563;52.242;9.098;2023-07-29T10:21:09;1.48;;;1.20;;
16892;SDS011;8563;52.242;9.098;2023-07-29T10:23:43;3.42;;;1.20;;
16892;SDS011;8563;52.242;9.098;2023-07-29T10:26:20;1.42;;;1.23;;
16892;SDS011;8563;52.242;9.098;2023-07-29T10:28:52;2.67;;;0.75;;
16892;SDS011;8563;52.242;9.098;2023-07-29T10:31:26;1.45;;;0.98;;
16892;SDS011;8563;52.242;9.098;2023-07-29T10:33:59;1.50;;;0.90;;
16892;SDS011;8563;52.242;9.098;2023-07-29T10:36:34;1.23;;;0.80;;
16892;SDS011;8563;52.242;9.098;2023-07-29T10:39:07;2.00;;;1.10;;
16892;SDS011;8563;52.242;9.098;2023-07-29T10:44:47;0.80;;;0.77;;
16892;SDS011;8563;52.242;9.098;2023-07-29T10:47:22;2.90;;;1.00;;
16892;SDS011;8563;52.242;9.098;2023-07-29T10:49:55;2.08;;;0.90;;
16892;SDS011;8563;52.242;9.098;2023-07-29T10:52:30;11.23;;;2.08;;
16892;SDS011;8563;52.242;9.098;2023-07-29T10:55:02;1.48;;;0.95;;
16892;SDS011;8563;52.242;9.098;2023-07-29T10:57:35;13.45;;;1.83;;
16892;SDS011;8563;52.242;9.098;2023-07-29T11:00:08;1.55;;;0.80;;
16892;SDS011;8563;52.242;9.098;2023-07-29T11:02:41;0.80;;;0.80;;
16892;SDS011;8563;52.242;9.098;2023-07-29T11:05:15;6.45;;;1.13;;
16892;SDS011;8563;52.242;9.098;2023-07-29T11:07:50;2.45;;;0.70;;
16892;SDS011;8563;52.242;9.098;2023-07-29T11:10:22;0.80;;;0.70;;
16892;SDS011;8563;52.242;9.098;2023-07-29T11:12:54;0.73;;;0.60;;
16892;SDS011;8563;52.242;9.098;2023-07-29T11:15:28;35.10;;;4.05;;
16892;SDS011;8563;52.242;9.098;2023-07-29T11:18:01;5.47;;;1.23;;
16892;SDS011;8563;52.242;9.098;2023-07-29T11:20:34;5.50;;;1.23;;
16892;SDS011;8563;52.242;9.098;2023-07-29T11:23:08;2.20;;;0.80;;
16892;SDS011;8563;52.242;9.098;2023-07-29T11:25:40;1.30;;;0.85;;
16892;SDS011;8563;52.242;9.098;2023-07-29T11:28:13;2.20;;;1.00;;
16892;SDS011;8563;52.242;9.098;2023-07-29T11:30:45;1.05;;;0.70;;
16892;SDS011;8563;52.242;9.098;2023-07-29T11:33:18;1.10;;;0.65;;
16892;SDS011;8563;52.242;9.098;2023-07-29T11:35:51;1.05;;;0.88;;
16892;SDS011;8563;52.242;9.098;2023-07-29T11:38:26;0.98;;;0.85;;
16892;SDS011;8563;52.242;9.098;2023-07-29T11:40:59;0.70;;;0.70;;
16892;SDS011;8563;52.242;9.098;2023-07-29T11:43:34;0.60;;;0.60;;
16892;SDS011;8563;52.242;9.098;2023-07-29T11:46:07;1.13;;;0.60;;
16892;SDS011;8563;52.242;9.098;2023-07-29T11:48:39;1.75;;;0.60;;
16892;SDS011;8563;52.242;9.098;2023-07-29T11:51:16;0.77;;;0.77;;
16892;SDS011;8563;52.242;9.098;2023-07-29T11:53:50;0.90;;;0.90;;
16892;SDS011;8563;52.242;9.098;2023-07-29T11:56:23;3.28;;;2.92;;
16892;SDS011;8563;52.242;9.098;2023-07-29T11:58:56;1.38;;;0.90;;
16892;SDS011;8563;52.242;9.098;2023-07-29T12:01:28;1.38;;;0.70;;
16892;SDS011;8563;52.242;9.098;2023-07-29T12:04:00;0.70;;;0.60;;
16892;SDS011;8563;52.242;9.098;2023-07-29T12:06:33;0.70;;;0.70;;
16892;SDS011;8563;52.242;9.098;2023-07-29T12:09:07;1.00;;;0.70;;
16892;SDS011;8563;52.242;9.098;2023-07-29T12:11:39;0.80;;;0.80;;
16892;SDS011;8563;52.242;9.098;2023-07-29T12:14:12;0.55;;;0.55;;
16892;SDS011;8563;52.242;9.098;2023-07-29T12:16:47;0.70;;;0.70;;
16892;SDS011;8563;52.242;9.098;2023-07-29T12:19:19;1.30;;;0.70;;
16892;SDS011;8563;52.242;9.098;2023-07-29T12:21:52;0.70;;;0.70;;
16892;SDS011;8563;52.242;9.098;2023-07-29T12:24:26;1.02;;;0.70;;
16892;SDS011;8563;52.242;9.098;2023-07-29T12:26:59;0.60;;;0.50;;
16892;SDS011;8563;52.242;9.098;2023-07-29T12:29:31;2.30;;;0.80;;
16892;SDS011;8563;52.242;9.098;2023-07-29T12:32:04;0.80;;;0.63;;
16892;SDS011;8563;52.242;9.098;2023-07-29T12:34:37;0.98;;;0.68;;
16892;SDS011;8563;52.242;9.098;2023-07-29T12:37:10;0.65;;;0.65;;
16892;SDS011;8563;52.242;9.098;2023-07-29T12:39:44;0.77;;;0.77;;
16892;SDS011;8563;52.242;9.098;2023-07-29T12:42:16;0.60;;;0.60;;
16892;SDS011;8563;52.242;9.098;2023-07-29T12:44:49;1.08;;;0.82;;
16892;SDS011;8563;52.242;9.098;2023-07-29T12:47:21;1.88;;;0.70;;
16892;SDS011;8563;52.242;9.098;2023-07-29T12:49:54;0.82;;;0.80;;
16892;SDS011;8563;52.242;9.098;2023-07-29T12:52:26;1.90;;;0.70;;
16892;SDS011;8563;52.242;9.098;2023-07-29T12:55:00;3.17;;;0.90;;
16892;SDS011;8563;52.242;9.098;2023-07-29T12:57:33;1.13;;;0.82;;
16892;SDS011;8563;52.242;9.098;2023-07-29T13:00:06;1.23;;;1.00;;
16892;SDS011;8563;52.242;9.098;2023-07-29T13:02:39;3.05;;;0.90;;
16892;SDS011;8563;52.242;9.098;2023-07-29T13:05:11;0.70;;;0.68;;
16892;SDS011;8563;52.242;9.098;2023-07-29T13:07:44;0.95;;;0.63;;
16892;SDS011;8563;52.242;9.098;2023-07-29T13:10:17;0.70;;;0.70;;
16892;SDS011;8563;52.242;9.098;2023-07-29T13:12:50;0.98;;;0.75;;
16892;SDS011;8563;52.242;9.098;2023-07-29T13:15:22;0.75;;;0.70;;
16892;SDS011;8563;52.242;9.098;2023-07-29T13:17:55;1.13;;;0.80;;
16892;SDS011;8563;52.242;9.098;2023-07-29T13:20:27;0.90;;;0.90;;
16892;SDS011;8563;52.242;9.098;2023-07-29T13:23:00;1.73;;;0.73;;
16892;SDS011;8563;52.242;9.098;2023-07-29T13:25:34;1.10;;;0.95;;
16892;SDS011;8563;52.242;9.098;2023-07-29T13:28:07;1.92;;;0.80;;
16892;SDS011;8563;52.242;9.098;2023-07-29T13:30:39;1.60;;;0.95;;
16892;SDS011;8563;52.242;9.098;2023-07-29T13:33:12;1.00;;;0.90;;
16892;SDS011;8563;52.242;9.098;2023-07-29T13:35:44;0.98;;;0.88;;
16892;SDS011;8563;52.242;9.098;2023-07-29T13:38:17;1.08;;;0.90;;
16892;SDS011;8563;52.242;9.098;2023-07-29T13:40:51;1.38;;;1.00;;
16892;SDS011;8563;52.242;9.098;2023-07-29T13:43:24;0.90;;;0.70;;
16892;SDS011;8563;52.242;9.098;2023-07-29T13:45:56;3.78;;;1.30;;
16892;SDS011;8563;52.242;9.098;2023-07-29T13:48:29;0.70;;;0.70;;
16892;SDS011;8563;52.242;9.098;2023-07-29T13:51:03;0.60;;;0.60;;
16892;SDS011;8563;52.242;9.098;2023-07-29T13:53:35;1.20;;;1.10;;
16892;SDS011;8563;52.242;9.098;2023-07-29T13:56:09;0.70;;;0.70;;
16892;SDS011;8563;52.242;9.098;2023-07-29T13:58:41;1.02;;;0.77;;
16892;SDS011;8563;52.242;9.098;2023-07-29T14:01:14;2.60;;;1.05;;
16892;SDS011;8563;52.242;9.098;2023-07-29T14:03:46;4.43;;;0.93;;
16892;SDS011;8563;52.242;9.098;2023-07-29T14:06:19;1.55;;;1.00;;
16892;SDS011;8563;52.242;9.098;2023-07-29T14:08:51;2.90;;;0.80;;
16892;SDS011;8563;52.242;9.098;2023-07-29T14:11:25;0.80;;;0.80;;
16892;SDS011;8563;52.242;9.098;2023-07-29T14:13:57;0.80;;;0.80;;
16892;SDS011;8563;52.242;9.098;2023-07-29T14:16:29;1.27;;;0.90;;
16892;SDS011;8563;52.242;9.098;2023-07-29T14:19:02;0.95;;;0.88;;
16892;SDS011;8563;52.242;9.098;2023-07-29T14:21:34;2.03;;;0.80;;
16892;SDS011;8563;52.242;9.098;2023-07-29T14:24:07;1.10;;;1.00;;
16892;SDS011;8563;52.242;9.098;2023-07-29T14:26:41;1.25;;;0.85;;
16892;SDS011;8563;52.242;9.098;2023-07-29T14:29:13;2.88;;;0.95;;
16892;SDS011;8563;52.242;9.098;2023-07-29T14:31:46;0.93;;;0.93;;
16892;SDS011;8563;52.242;9.098;2023-07-29T14:34:18;1.20;;;1.10;;
16892;SDS011;8563;52.242;9.098;2023-07-29T14:36:50;1.67;;;1.10;;
16892;SDS011;8563;52.242;9.098;2023-07-29T14:39:23;3.33;;;0.85;;
16892;SDS011;8563;52.242;9.098;2023-07-29T14:41:56;1.30;;;1.00;;
16892;SDS011;8563;52.242;9.098;2023-07-29T14:44:29;1.13;;;0.77;;
16892;SDS011;8563;52.242;9.098;2023-07-29T14:47:01;1.05;;;0.90;;
16892;SDS011;8563;52.242;9.098;2023-07-29T14:49:34;1.30;;;0.88;;
16892;SDS011;8563;52.242;9.098;2023-07-29T14:52:06;1.05;;;0.95;;
16892;SDS011;8563;52.242;9.098;2023-07-29T14:54:39;2.42;;;0.88;;
16892;SDS011;8563;52.242;9.098;2023-07-29T14:57:13;1.20;;;0.82;;
16892;SDS011;8563;52.242;9.098;2023-07-29T14:59:45;4.80;;;0.90;;
16892;SDS011;8563;52.242;9.098;2023-07-29T15:02:18;2.83;;;0.93;;
16892;SDS011;8563;52.242;9.098;2023-07-29T15:04:50;0.80;;;0.80;;
16892;SDS011;8563;52.242;9.098;2023-07-29T15:07:23;1.27;;;1.08;;
16892;SDS011;8563;52.242;9.098;2023-07-29T15:09:55;1.10;;;0.88;;
16892;SDS011;8563;52.242;9.098;2023-07-29T15:12:29;1.35;;;0.90;;
16892;SDS011;8563;52.242;9.098;2023-07-29T15:15:01;0.80;;;0.80;;
16892;SDS011;8563;52.242;9.098;2023-07-29T15:17:34;1.38;;;0.80;;
16892;SDS011;8563;52.242;9.098;2023-07-29T15:20:07;1.33;;;1.00;;
16892;SDS011;8563;52.242;9.098;2023-07-29T15:22:39;0.93;;;0.90;;
16892;SDS011;8563;52.242;9.098;2023-07-29T15:25:11;1.50;;;1.20;;
16892;SDS011;8563;52.242;9.098;2023-07-29T15:27:45;6.25;;;3.17;;
16892;SDS011;8563;52.242;9.098;2023-07-29T15:30:18;4.70;;;1.60;;
16892;SDS011;8563;52.242;9.098;2023-07-29T15:32:51;1.15;;;0.90;;
16892;SDS011;8563;52.242;9.098;2023-07-29T15:35:23;1.50;;;1.00;;
16892;SDS011;8563;52.242;9.098;2023-07-29T15:37:56;0.98;;;0.90;;
16892;SDS011;8563;52.242;9.098;2023-07-29T15:40:28;1.65;;;1.10;;